Baroy — LCHG — position and weather

sailwx.info

Track history (hours):
 
Tides and Currents Weather Stations Pressure Air Temp Water Temp Dewpoint Dewpoint Depression Visibility Wind Speed Wind Dir Waves Ship Positions

Baroy

Last reported at 2017-Nov-20 00:29 UTC. Time now 2017-Nov-21 20:58 UTC.
Position N 68°25' E 015°60'.

Length 93 m; draft 4 m.

Type: Passenger vessel. MMSI: 257741000.

Date/timePositionNaut miles runAvg speedWind from/ knotsBaromVisibWave heightAir tempDewpointWater temp
2017-Nov-20 00:29N 68°25' E 015°60'0 0.0
2017-Nov-19 23:59N 68°25' E 015°60'1 1.5
2017-Nov-19 23:30N 68°25' E 016°01'814.9
2017-Nov-19 23:00N 68°17' E 016°03'4 7.3
2017-Nov-19 22:30N 68°14' E 016°04'612.7
2017-Nov-19 22:00N 68°20' E 016°01'611.1
2017-Nov-19 21:30N 68°25' E 015°60'3 6.3
2017-Nov-19 21:00N 68°22' E 016°01'713.9
2017-Nov-19 20:30N 68°15' E 016°05'2 3.5
2017-Nov-19 20:00N 68°14' E 016°04'612.3
2017-Nov-19 19:30N 68°20' E 016°00'611.3
2017-Nov-19 19:00N 68°25' E 015°60'2 3.4
2017-Nov-19 18:30N 68°24' E 016°01'713.2
2017-Nov-19 18:00N 68°17' E 016°03'4 7.1
2017-Nov-19 17:29N 68°13' E 016°04'3 5.9
2017-Nov-19 17:00N 68°16' E 016°03'713.8
2017-Nov-19 16:30N 68°23' E 016°01'2 4.4
2017-Nov-19 16:00N 68°25' E 015°60'0 0.9
2017-Nov-19 15:30N 68°25' E 016°01'713.2
2017-Nov-19 15:00N 68°18' E 016°01'510.2
2017-Nov-19 14:30N 68°13' E 016°04'2 3.2
2017-Nov-19 14:00N 68°15' E 016°05'714.7
2017-Nov-19 13:30N 68°22' E 016°01'3 6.3
2017-Nov-19 13:00N 68°25' E 015°60'0 0.0
2017-Nov-19 12:30N 68°25' E 015°60'0 0.0
2017-Nov-19 12:00N 68°25' E 015°60'3 6.0
2017-Nov-19 11:30N 68°22' E 016°01'714.0
2017-Nov-19 11:00N 68°16' E 016°05'2 3.7
2017-Nov-19 10:30N 68°14' E 016°05'612.3
2017-Nov-19 10:00N 68°20' E 016°01'611.4
2017-Nov-19 09:30N 68°25' E 015°60'2 4.2
2017-Nov-19 09:00N 68°23' E 016°01'714.0
2017-Nov-19 08:30N 68°16' E 016°04'3 5.5
2017-Nov-19 08:00N 68°14' E 016°04'611.9
2017-Nov-19 07:30N 68°19' E 016°01'612.0
2017-Nov-19 07:00N 68°25' E 015°60'0 0.0
2017-Nov-19 06:30N 68°25' E 015°60'0 0.0
2017-Nov-19 06:00N 68°25' E 015°60'0 0.0
2017-Nov-19 05:30N 68°25' E 015°60'0 0.0
2017-Nov-19 05:00N 68°25' E 015°60'0 0.0
2017-Nov-19 04:30N 68°25' E 015°60'0 0.0
2017-Nov-19 04:00N 68°25' E 015°60'0 0.0
2017-Nov-19 03:30N 68°25' E 015°60'0 0.0
2017-Nov-19 03:00N 68°25' E 015°60'0 0.0
2017-Nov-19 02:30N 68°25' E 015°60'0 0.0
2017-Nov-19 02:00N 68°25' E 015°60'0 0.0
2017-Nov-19 01:30N 68°25' E 015°60'0 0.0
2017-Nov-19 01:00N 68°25' E 015°60'0 0.0
2017-Nov-19 00:30N 68°25' E 015°60'0 0.0
2017-Nov-19 00:00N 68°25' E 015°60'0 0.0
2017-Nov-18 23:30N 68°25' E 015°60'0 0.0
2017-Nov-18 23:00N 68°25' E 015°60'0 0.0
2017-Nov-18 22:30N 68°25' E 015°60'0 0.0
2017-Nov-18 22:00N 68°25' E 015°60'0 0.0
2017-Nov-18 21:30N 68°25' E 015°60'5 9.4
2017-Nov-18 21:00N 68°21' E 016°01'713.8
2017-Nov-18 20:30N 68°14' E 016°05'1 1.1
2017-Nov-18 20:00N 68°14' E 016°04'612.6
2017-Nov-18 19:30N 68°20' E 015°60'611.2
2017-Nov-18 19:00N 68°25' E 015°60'1 2.5
2017-Nov-18 18:30N 68°24' E 016°02'713.5
2017-Nov-18 18:00N 68°17' E 016°02'4 8.0
2017-Nov-18 17:30N 68°13' E 016°04'3 5.7
2017-Nov-18 17:00N 68°16' E 016°03'714.1
2017-Nov-18 16:30N 68°23' E 016°01'2 4.1
2017-Nov-18 16:00N 68°25' E 015°60'0 0.1
2017-Nov-18 15:30N 68°25' E 015°60'611.4
2017-Nov-18 15:00N 68°20' E 016°01'612.6
2017-Nov-18 14:30N 68°13' E 016°04'0 0.2
2017-Nov-18 14:00N 68°14' E 016°04'612.4
2017-Nov-18 13:30N 68°20' E 016°00'611.5
2017-Nov-18 13:00N 68°25' E 015°60'0 0.0
2017-Nov-18 12:30N 68°25' E 015°60'0 0.0
2017-Nov-18 12:00N 68°25' E 015°60'2 3.9
2017-Nov-18 11:30N 68°23' E 016°01'714.0
2017-Nov-18 11:00N 68°16' E 016°04'3 5.7
2017-Nov-18 10:30N 68°14' E 016°04'612.1
2017-Nov-18 10:00N 68°20' E 016°00'611.5
2017-Nov-18 09:30N 68°25' E 015°60'3 5.7
2017-Nov-18 09:00N 68°22' E 016°01'713.5
2017-Nov-18 08:30N 68°16' E 016°04'2 4.5
2017-Nov-18 08:00N 68°14' E 016°04'612.8
2017-Nov-18 07:30N 68°20' E 015°60'610.8
2017-Nov-18 07:00N 68°25' E 015°60'0 0.0
2017-Nov-18 06:28N 68°25' E 015°60'0 0.0
2017-Nov-18 05:58N 68°25' E 015°60'0 0.0
2017-Nov-18 05:28N 68°25' E 015°60'0 0.0
2017-Nov-18 04:58N 68°25' E 015°60'0 0.0
2017-Nov-18 04:28N 68°25' E 015°60'0 0.0
2017-Nov-18 03:58N 68°25' E 015°60'0 0.0
2017-Nov-18 03:28N 68°25' E 015°60'0 0.0
2017-Nov-18 02:58N 68°25' E 015°60'0 0.0
2017-Nov-18 02:28N 68°25' E 015°60'0 0.0
2017-Nov-18 01:58N 68°25' E 015°60'0 0.0
2017-Nov-18 01:28N 68°25' E 015°60'0 0.0
2017-Nov-18 00:58N 68°25' E 015°60'0 0.0
2017-Nov-18 00:28N 68°25' E 015°60'0 0.0
2017-Nov-17 23:57N 68°25' E 015°60'3 7.3
2017-Nov-17 23:30N 68°22' E 016°01'713.1
2017-Nov-17 23:00N 68°16' E 016°05'2 3.9
2017-Nov-17 22:30N 68°14' E 016°04'612.3
2017-Nov-17 22:00N 68°20' E 016°00'611.6
2017-Nov-17 21:30N 68°25' E 015°60'3 5.1
2017-Nov-17 21:00N 68°23' E 016°01'713.1
2017-Nov-17 20:30N 68°16' E 016°04'3 5.3
2017-Nov-17 20:00N 68°14' E 016°04'612.4
2017-Nov-17 19:30N 68°20' E 015°60'611.4
2017-Nov-17 19:00N 68°25' E 015°60'3 5.1
2017-Nov-17 18:30N 68°23' E 016°01'713.4
2017-Nov-17 18:00N 68°16' E 016°04'3 5.3
2017-Nov-17 17:30N 68°13' E 016°04'3 6.8
2017-Nov-17 17:00N 68°17' E 016°03'713.4
2017-Nov-17 16:30N 68°23' E 016°01'2 3.7
2017-Nov-17 16:00N 68°25' E 015°60'0 0.0
2017-Nov-17 15:30N 68°25' E 015°60'511.0
2017-Nov-17 15:00N 68°20' E 016°01'613.0
2017-Nov-17 14:30N 68°13' E 016°04'0 0.5
2017-Nov-17 14:00N 68°14' E 016°05'612.9
2017-Nov-17 13:30N 68°20' E 016°00'510.8
2017-Nov-17 13:00N 68°25' E 015°60'0 0.0
2017-Nov-17 12:30N 68°25' E 015°60'0 0.0
2017-Nov-17 12:00N 68°25' E 015°60'3 6.0
2017-Nov-17 11:30N 68°22' E 016°01'714.1
2017-Nov-17 11:00N 68°15' E 016°05'2 3.6
2017-Nov-17 10:30N 68°14' E 016°04'612.3
2017-Nov-17 10:00N 68°20' E 016°00'611.5
2017-Nov-17 09:30N 68°25' E 015°60'2 4.2
2017-Nov-17 09:00N 68°23' E 016°01'714.2
2017-Nov-17 08:30N 68°16' E 016°04'3 5.4
2017-Nov-17 08:00N 68°14' E 016°04'612.3
2017-Nov-17 07:30N 68°20' E 016°01'611.1
2017-Nov-17 07:00N 68°25' E 015°60'2 3.9
2017-Nov-17 06:30N 68°23' E 016°01'714.3
2017-Nov-17 06:00N 68°16' E 016°04'3 5.5
2017-Nov-17 05:30N 68°14' E 016°04'612.4
2017-Nov-17 05:00N 68°20' E 016°00'611.3
2017-Nov-17 04:31N 68°25' E 015°60'0 0.0
2017-Nov-17 04:00N 68°25' E 015°60'0 0.0
2017-Nov-17 03:30N 68°25' E 015°60'0 0.0
2017-Nov-17 03:00N 68°25' E 015°60'0 0.0
2017-Nov-17 02:27N 68°25' E 015°60'0 0.0
2017-Nov-17 02:00N 68°25' E 015°60'0 0.0
2017-Nov-17 01:30N 68°25' E 015°60'0 0.0
2017-Nov-17 01:00N 68°25' E 015°60'0 0.0
2017-Nov-17 00:30N 68°25' E 015°60'0 0.0
2017-Nov-16 23:57N 68°25' E 015°60'2 3.9
2017-Nov-16 23:30N 68°24' E 016°01'613.1
2017-Nov-16 23:00N 68°17' E 016°03'4 7.4
2017-Nov-16 22:30N 68°14' E 016°04'612.4
2017-Nov-16 22:00N 68°20' E 016°01'511.0
2017-Nov-16 21:30N 68°25' E 015°60'3 5.5
2017-Nov-16 21:00N 68°23' E 016°01'713.5
2017-Nov-16 20:30N 68°16' E 016°04'2 4.7
2017-Nov-16 20:01N 68°14' E 016°04'712.8
2017-Nov-16 19:30N 68°20' E 016°00'510.4
2017-Nov-16 19:00N 68°25' E 015°60'2 3.9
2017-Nov-16 18:30N 68°23' E 016°01'713.2
2017-Nov-16 18:00N 68°17' E 016°03'3 6.9
2017-Nov-16 17:30N 68°13' E 016°04'3 6.5
2017-Nov-16 17:00N 68°17' E 016°03'713.5
2017-Nov-16 16:30N 68°23' E 016°01'2 3.9
2017-Nov-16 16:01N 68°25' E 015°60'0 0.1
2017-Nov-16 15:30N 68°25' E 015°60'611.9
2017-Nov-16 15:00N 68°19' E 016°01'611.8
2017-Nov-16 14:30N 68°13' E 016°04'0 0.2
2017-Nov-16 14:00N 68°14' E 016°04'612.7
2017-Nov-16 13:30N 68°20' E 015°60'611.2
2017-Nov-16 13:00N 68°25' E 015°60'0 0.0
2017-Nov-16 12:30N 68°25' E 015°60'0 0.0
2017-Nov-16 12:00N 68°25' E 015°60'3 6.1
2017-Nov-16 11:30N 68°22' E 016°01'714.2
2017-Nov-16 11:00N 68°15' E 016°05'2 3.3
2017-Nov-16 10:30N 68°14' E 016°05'612.8
2017-Nov-16 10:00N 68°20' E 016°01'510.9
2017-Nov-16 09:30N 68°25' E 015°60'3 5.1
2017-Nov-16 09:00N 68°23' E 016°01'714.1
2017-Nov-16 08:30N 68°16' E 016°04'2 4.4
2017-Nov-16 08:00N 68°14' E 016°05'713.5
2017-Nov-16 07:30N 68°20' E 016°01'510.3
2017-Nov-16 07:00N 68°25' E 015°60'4 6.9
2017-Nov-16 06:30N 68°22' E 016°02'713.7
2017-Nov-16 06:00N 68°15' E 016°05'2 3.1
2017-Nov-16 05:30N 68°14' E 016°05'612.7
2017-Nov-16 05:00N 68°20' E 016°01'611.1
2017-Nov-16 04:30N 68°25' E 015°60'0 0.0
2017-Nov-16 03:59N 68°25' E 015°60'0 0.0
2017-Nov-16 03:29N 68°25' E 015°60'0 0.0
2017-Nov-16 02:59N 68°25' E 015°60'0 0.0
2017-Nov-16 02:29N 68°25' E 015°60'0 0.0
2017-Nov-16 01:59N 68°25' E 015°60'0 0.0
2017-Nov-16 01:29N 68°25' E 015°60'0 0.0
2017-Nov-16 00:59N 68°25' E 015°60'0 0.0
2017-Nov-16 00:29N 68°25' E 015°60'0 0.0
2017-Nov-15 23:59N 68°25' E 015°60'1 2.7
2017-Nov-15 23:30N 68°24' E 016°01'713.7
2017-Nov-15 23:00N 68°17' E 016°02'4 7.6
2017-Nov-15 22:30N 68°14' E 016°04'612.4
2017-Nov-15 22:01N 68°20' E 016°01'611.1
2017-Nov-15 21:30N 68°25' E 015°60'2 4.7
2017-Nov-15 21:00N 68°23' E 016°01'713.6
2017-Nov-15 20:30N 68°16' E 016°04'3 5.2
2017-Nov-15 20:00N 68°14' E 016°05'612.8
2017-Nov-15 19:30N 68°20' E 016°01'510.6
2017-Nov-15 19:00N 68°25' E 015°60'2 3.2
2017-Nov-15 18:30N 68°24' E 016°01'713.6
2017-Nov-15 18:00N 68°17' E 016°03'4 7.4
2017-Nov-15 17:30N 68°13' E 016°04'4 7.8
2017-Nov-15 17:00N 68°17' E 016°02'713.4
2017-Nov-15 16:30N 68°24' E 016°01'1 2.6
2017-Nov-15 16:00N 68°25' E 015°60'0 0.1
2017-Nov-15 15:30N 68°25' E 015°60'611.3
2017-Nov-15 15:00N 68°20' E 016°01'612.7
2017-Nov-15 14:30N 68°13' E 016°04'0 0.6
2017-Nov-15 14:00N 68°14' E 016°05'713.2
2017-Nov-15 13:30N 68°20' E 016°00'510.0
2017-Nov-15 12:59N 68°25' E 015°60'0 0.0
2017-Nov-15 12:30N 68°25' E 015°60'0 0.0
2017-Nov-15 12:00N 68°25' E 015°60'3 6.0
2017-Nov-15 11:30N 68°22' E 016°01'714.3
2017-Nov-15 11:00N 68°15' E 016°05'2 3.3
2017-Nov-15 10:30N 68°14' E 016°05'713.3
2017-Nov-15 10:00N 68°20' E 016°01'510.2
2017-Nov-15 09:30N 68°25' E 015°60'3 6.0
2017-Nov-15 09:00N 68°22' E 016°01'714.0
2017-Nov-15 08:31N 68°15' E 016°05'2 3.0
2017-Nov-15 08:00N 68°14' E 016°05'713.6
2017-Nov-15 07:31N 68°21' E 016°01'5 9.1
2017-Nov-15 07:00N 68°25' E 015°60'2 3.6
2017-Nov-15 06:30N 68°24' E 016°01'714.2
2017-Nov-15 06:00N 68°16' E 016°04'3 5.5
2017-Nov-15 05:30N 68°14' E 016°05'713.1
2017-Nov-15 05:00N 68°20' E 016°01'510.5
2017-Nov-15 04:30N 68°25' E 015°60'0 0.0
2017-Nov-15 04:00N 68°25' E 015°60'0 0.0
2017-Nov-15 03:30N 68°25' E 015°60'0 0.0
2017-Nov-15 03:00N 68°25' E 015°60'0 0.0
2017-Nov-15 02:30N 68°25' E 015°60'0 0.0
2017-Nov-15 02:00N 68°25' E 015°60'0 0.0
2017-Nov-15 01:30N 68°25' E 015°60'0 0.0
2017-Nov-15 01:00N 68°25' E 015°60'0 0.0
2017-Nov-15 00:30N 68°25' E 015°60'0 0.0
2017-Nov-15 00:00N 68°25' E 015°60'3 5.4
2017-Nov-14 23:30N 68°23' E 016°01'713.4
2017-Nov-14 23:00N 68°16' E 016°04'2 4.1
2017-Nov-14 22:30N 68°14' E 016°05'612.7
2017-Nov-14 22:00N 68°20' E 016°00'510.1
2017-Nov-14 21:30N 68°25' E 015°60'4 7.5
2017-Nov-14 21:00N 68°22' E 016°01'713.9
2017-Nov-14 20:30N 68°15' E 016°05'1 2.4
2017-Nov-14 20:00N 68°14' E 016°05'612.5
2017-Nov-14 19:30N 68°20' E 016°01'611.0
2017-Nov-14 19:00N 68°25' E 015°60'1 2.5
2017-Nov-14 18:30N 68°24' E 016°02'713.8
2017-Nov-14 18:00N 68°17' E 016°03'4 7.6
2017-Nov-14 17:30N 68°13' E 016°04'3 7.1
2017-Nov-14 17:00N 68°17' E 016°03'713.4
2017-Nov-14 16:30N 68°24' E 016°01'2 3.5
2017-Nov-14 16:00N 68°25' E 015°60'0 0.1
2017-Nov-14 15:30N 68°25' E 015°60'611.5
2017-Nov-14 15:00N 68°20' E 016°01'612.6
2017-Nov-14 14:30N 68°13' E 016°04'0 0.5
2017-Nov-14 14:00N 68°14' E 016°05'612.9
2017-Nov-14 13:30N 68°20' E 016°00'510.8
2017-Nov-14 13:01N 68°25' E 015°60'0 0.0
2017-Nov-14 12:30N 68°25' E 015°60'0 0.0
2017-Nov-14 12:00N 68°25' E 015°60'2 3.7
2017-Nov-14 11:30N 68°23' E 016°01'714.1
2017-Nov-14 11:00N 68°16' E 016°03'3 5.9
2017-Nov-14 10:30N 68°14' E 016°04'612.1
2017-Nov-14 10:00N 68°19' E 015°60'612.0
2017-Nov-14 09:30N 68°25' E 015°60'2 4.1
2017-Nov-14 09:00N 68°23' E 016°01'714.0
2017-Nov-14 08:30N 68°16' E 016°04'3 5.5
2017-Nov-14 08:00N 68°14' E 016°05'612.7
2017-Nov-14 07:30N 68°20' E 016°00'611.2
2017-Nov-14 07:00N 68°25' E 015°60'1 2.1
2017-Nov-14 06:30N 68°24' E 016°01'714.2
2017-Nov-14 06:00N 68°17' E 016°02'4 7.2
2017-Nov-14 05:30N 68°14' E 016°05'613.0
2017-Nov-14 05:00N 68°20' E 016°00'510.7
2017-Nov-14 04:30N 68°25' E 015°60'0 0.0
2017-Nov-14 04:00N 68°25' E 015°60'0 0.0
2017-Nov-14 03:30N 68°25' E 015°60'0 0.0
2017-Nov-14 03:00N 68°25' E 015°60'0 0.0
2017-Nov-14 02:30N 68°25' E 015°60'0 0.0
2017-Nov-14 02:00N 68°25' E 015°60'0 0.0
2017-Nov-14 01:30N 68°25' E 015°60'0 0.0
2017-Nov-14 01:00N 68°25' E 015°60'0 0.0
2017-Nov-14 00:30N 68°25' E 015°60'0 0.0
2017-Nov-14 00:00N 68°25' E 015°60'1 2.9
2017-Nov-13 23:30N 68°24' E 016°01'713.4
2017-Nov-13 23:00N 68°17' E 016°03'4 7.4
2017-Nov-13 22:30N 68°14' E 016°05'612.4
2017-Nov-13 22:00N 68°20' E 016°01'6 0.3
2017-Nov-13 02:00N 68°25' E 015°60'0 0.0
2017-Nov-13 01:30N 68°25' E 015°60'0 0.0
2017-Nov-13 01:00N 68°25' E 015°60'0 0.0
2017-Nov-13 00:30N 68°25' E 015°60'0 0.0
2017-Nov-13 00:00N 68°25' E 015°60'1 2.7
2017-Nov-12 23:30N 68°24' E 016°01'713.5
2017-Nov-12 23:00N 68°17' E 016°02'4 7.9
2017-Nov-12 22:30N 68°14' E 016°04'612.2
2017-Nov-12 22:00N 68°20' E 016°00'611.5
2017-Nov-12 21:31N 68°25' E 015°60'3 5.2
2017-Nov-12 21:00N 68°23' E 016°01'713.2
2017-Nov-12 20:30N 68°16' E 016°04'3 4.9
2017-Nov-12 20:00N 68°14' E 016°04'612.6
2017-Nov-12 19:30N 68°20' E 016°00'611.1
2017-Nov-12 19:00N 68°25' E 015°60'1 2.1
2017-Nov-12 18:30N 68°24' E 016°01'713.9
2017-Nov-12 18:00N 68°18' E 016°02'4 8.2
2017-Nov-12 17:30N 68°13' E 016°04'3 6.2
2017-Nov-12 17:01N 68°16' E 016°03'713.6
2017-Nov-12 16:30N 68°23' E 016°01'2 3.9
2017-Nov-12 16:00N 68°25' E 015°60'0 0.0
2017-Nov-12 15:30N 68°25' E 015°60'510.8
2017-Nov-12 15:00N 68°20' E 016°01'713.1
2017-Nov-12 14:30N 68°13' E 016°04'0 0.2
2017-Nov-12 14:00N 68°14' E 016°04'612.5
2017-Nov-12 13:30N 68°20' E 016°00'611.3
2017-Nov-12 13:00N 68°25' E 015°60'0 0.0
2017-Nov-12 12:30N 68°25' E 015°60'0 0.0
2017-Nov-12 12:00N 68°25' E 015°60'2 4.2
2017-Nov-12 11:30N 68°23' E 016°01'713.6
2017-Nov-12 11:00N 68°16' E 016°04'3 5.9
2017-Nov-12 10:31N 68°14' E 016°04'612.4
2017-Nov-12 10:00N 68°20' E 016°00'511.1
2017-Nov-12 09:30N 68°25' E 015°60'2 3.7
2017-Nov-12 09:00N 68°24' E 016°01'714.0
2017-Nov-12 08:30N 68°16' E 016°04'3 5.7
2017-Nov-12 08:00N 68°14' E 016°04'612.5
2017-Nov-12 07:30N 68°20' E 016°01'611.2
2017-Nov-12 07:00N 68°25' E 015°60'0 0.0
2017-Nov-12 06:29N 68°25' E 015°60'0 0.0
2017-Nov-12 05:59N 68°25' E 015°60'0 0.0
2017-Nov-12 05:29N 68°25' E 015°60'0 0.0
2017-Nov-12 04:59N 68°25' E 015°60'0 0.0
2017-Nov-12 04:29N 68°25' E 015°60'0 0.0
2017-Nov-12 03:59N 68°25' E 015°60'0 0.0
2017-Nov-12 03:29N 68°25' E 015°60'0 0.0
2017-Nov-12 02:59N 68°25' E 015°60'0 0.0
2017-Nov-12 02:29N 68°25' E 015°60'0 0.0
2017-Nov-12 01:59N 68°25' E 015°60'0 0.0
2017-Nov-12 01:29N 68°25' E 015°60'0 0.0
2017-Nov-12 00:59N 68°25' E 015°60'0 0.0
2017-Nov-12 00:29N 68°25' E 015°60'0 0.0
2017-Nov-11 23:59N 68°25' E 015°60'0 0.0
2017-Nov-11 23:29N 68°25' E 015°60'0 0.0
2017-Nov-11 22:59N 68°25' E 015°60'0 0.0
2017-Nov-11 22:29N 68°25' E 015°60'0 0.0
2017-Nov-11 21:59N 68°25' E 015°60'0 0.0
2017-Nov-11 21:29N 68°25' E 015°60'2 4.7
2017-Nov-11 21:00N 68°23' E 016°01'713.6
2017-Nov-11 20:30N 68°16' E 016°04'3 5.5
2017-Nov-11 20:00N 68°14' E 016°04'612.1
2017-Nov-11 19:30N 68°19' E 016°01'611.6
2017-Nov-11 19:00N 68°25' E 015°60'1 2.0
2017-Nov-11 18:30N 68°24' E 016°01'714.1
2017-Nov-11 18:00N 68°17' E 016°02'4 8.0
2017-Nov-11 17:30N 68°13' E 016°04'4 7.3
2017-Nov-11 17:00N 68°17' E 016°02'612.8
2017-Nov-11 16:30N 68°23' E 016°01'2 3.8
2017-Nov-11 16:00N 68°25' E 015°60'0 0.2
2017-Nov-11 15:30N 68°25' E 015°60'612.3
2017-Nov-11 15:00N 68°19' E 016°01'611.7
2017-Nov-11 14:30N 68°13' E 016°04'0 0.3
2017-Nov-11 14:00N 68°14' E 016°04'612.7
2017-Nov-11 13:30N 68°20' E 016°00'510.9
2017-Nov-11 13:00N 68°25' E 015°60'0 0.0
2017-Nov-11 12:30N 68°25' E 015°60'0 0.0
2017-Nov-11 12:00N 68°25' E 015°60'4 7.3
2017-Nov-11 11:30N 68°22' E 016°01'714.0
2017-Nov-11 11:00N 68°15' E 016°05'1 1.6
2017-Nov-11 10:30N 68°14' E 016°05'612.7
2017-Nov-11 10:00N 68°20' E 016°01'510.1
2017-Nov-11 09:30N 68°25' E 015°60'3 5.2
2017-Nov-11 09:00N 68°23' E 016°01'713.9
2017-Nov-11 08:30N 68°16' E 016°04'2 4.4
2017-Nov-11 08:00N 68°14' E 016°05'613.0
2017-Nov-11 07:30N 68°20' E 016°00'510.7
2017-Nov-11 07:00N 68°25' E 015°60'0 0.0
2017-Nov-11 06:30N 68°25' E 015°60'0 0.0
2017-Nov-11 06:00N 68°25' E 015°60'0 0.0
2017-Nov-11 05:30N 68°25' E 015°60'0 0.0
2017-Nov-11 05:00N 68°25' E 015°60'0 0.0
2017-Nov-11 04:30N 68°25' E 015°60'0 0.0
2017-Nov-11 04:00N 68°25' E 015°60'0 0.0
2017-Nov-11 03:30N 68°25' E 015°60'0 0.0
2017-Nov-11 03:00N 68°25' E 015°60'0 0.0
2017-Nov-11 02:30N 68°25' E 015°60'0 0.0
2017-Nov-11 02:00N 68°25' E 015°60'0 0.0
2017-Nov-11 01:30N 68°25' E 015°60'0 0.0
2017-Nov-11 01:00N 68°25' E 015°60'0 0.0
2017-Nov-11 00:30N 68°25' E 015°60'0 0.0
2017-Nov-11 00:00N 68°25' E 015°60'1 1.5
2017-Nov-10 23:30N 68°25' E 016°01'714.3
2017-Nov-10 23:00N 68°18' E 016°02'4 8.4
2017-Nov-10 22:30N 68°14' E 016°04'612.2
2017-Nov-10 22:00N 68°20' E 016°01'611.2
2017-Nov-10 21:30N 68°25' E 015°60'2 3.3
2017-Nov-10 21:00N 68°24' E 016°01'714.8
2017-Nov-10 20:30N 68°16' E 016°03'3 5.8
2017-Nov-10 20:00N 68°14' E 016°04'612.1
2017-Nov-10 19:30N 68°20' E 016°01'611.3
2017-Nov-10 19:00N 68°25' E 015°60'1 1.9
2017-Nov-10 18:30N 68°24' E 016°01'714.2
2017-Nov-10 18:00N 68°17' E 016°02'4 8.1
2017-Nov-10 17:30N 68°13' E 016°04'3 6.9
2017-Nov-10 17:00N 68°17' E 016°02'613.0
2017-Nov-10 16:30N 68°23' E 016°01'2 3.9
2017-Nov-10 16:00N 68°25' E 015°60'0 0.1
2017-Nov-10 15:30N 68°25' E 015°60'611.6
2017-Nov-10 15:00N 68°19' E 016°01'612.3
2017-Nov-10 14:30N 68°13' E 016°04'1 1.3
2017-Nov-10 14:00N 68°14' E 016°05'612.8
2017-Nov-10 13:30N 68°20' E 016°00'510.5
2017-Nov-10 13:00N 68°25' E 015°60'0 0.0
2017-Nov-10 12:30N 68°25' E 015°60'0 0.0
2017-Nov-10 12:00N 68°25' E 015°60'3 5.4
2017-Nov-10 11:30N 68°23' E 016°01'713.7
2017-Nov-10 11:00N 68°16' E 016°04'2 4.3
2017-Nov-10 10:30N 68°14' E 016°05'612.7
2017-Nov-10 10:00N 68°20' E 016°00'611.1
2017-Nov-10 09:30N 68°25' E 015°60'3 5.3
2017-Nov-10 09:00N 68°23' E 016°01'713.7
2017-Nov-10 08:30N 68°16' E 016°04'2 4.2
2017-Nov-10 08:00N 68°14' E 016°05'613.0
2017-Nov-10 07:30N 68°20' E 016°01'510.3
2017-Nov-10 07:00N 68°25' E 015°60'1 2.3
2017-Nov-10 06:30N 68°24' E 016°02'713.7
2017-Nov-10 06:00N 68°17' E 016°02'4 7.9
2017-Nov-10 05:30N 68°14' E 016°05'612.4
2017-Nov-10 05:00N 68°20' E 016°01'611.3
2017-Nov-10 04:30N 68°25' E 015°60'0 0.0
2017-Nov-10 04:00N 68°25' E 015°60'0 0.0
2017-Nov-10 03:30N 68°25' E 015°60'0 0.0
2017-Nov-10 03:00N 68°25' E 015°60'0 0.0
2017-Nov-10 02:30N 68°25' E 015°60'0 0.0
2017-Nov-10 02:00N 68°25' E 015°60'0 0.0
2017-Nov-10 01:30N 68°25' E 015°60'0 0.0
2017-Nov-10 01:00N 68°25' E 015°60'0 0.0
2017-Nov-10 00:30N 68°25' E 015°60'  
Track history (hours):
 
Tides and Currents Weather Stations Pressure Air Temp Water Temp Dewpoint Dewpoint Depression Visibility Wind Speed Wind Dir Waves Ship Positions

Baroy

Last reported at 2017-Nov-20 00:29 UTC. Time now 2017-Nov-21 20:58 UTC.
Position N 68°25' E 015°60'.

Length 93 m; draft 4 m.

Type: Passenger vessel. MMSI: 257741000.

Date/timePositionNaut miles runAvg speedWind from/ knotsBaromVisibWave heightAir tempDewpointWater temp
2017-Nov-20 00:29N 68°25' E 015°60'0 0.0
2017-Nov-19 23:59N 68°25' E 015°60'1 1.5
2017-Nov-19 23:30N 68°25' E 016°01'814.9
2017-Nov-19 23:00N 68°17' E 016°03'4 7.3
2017-Nov-19 22:30N 68°14' E 016°04'612.7
2017-Nov-19 22:00N 68°20' E 016°01'611.1
2017-Nov-19 21:30N 68°25' E 015°60'3 6.3
2017-Nov-19 21:00N 68°22' E 016°01'713.9
2017-Nov-19 20:30N 68°15' E 016°05'2 3.5
2017-Nov-19 20:00N 68°14' E 016°04'612.3
2017-Nov-19 19:30N 68°20' E 016°00'611.3
2017-Nov-19 19:00N 68°25' E 015°60'2 3.4
2017-Nov-19 18:30N 68°24' E 016°01'713.2
2017-Nov-19 18:00N 68°17' E 016°03'4 7.1
2017-Nov-19 17:29N 68°13' E 016°04'3 5.9
2017-Nov-19 17:00N 68°16' E 016°03'713.8
2017-Nov-19 16:30N 68°23' E 016°01'2 4.4
2017-Nov-19 16:00N 68°25' E 015°60'0 0.9
2017-Nov-19 15:30N 68°25' E 016°01'713.2
2017-Nov-19 15:00N 68°18' E 016°01'510.2
2017-Nov-19 14:30N 68°13' E 016°04'2 3.2
2017-Nov-19 14:00N 68°15' E 016°05'714.7
2017-Nov-19 13:30N 68°22' E 016°01'3 6.3
2017-Nov-19 13:00N 68°25' E 015°60'0 0.0
2017-Nov-19 12:30N 68°25' E 015°60'0 0.0
2017-Nov-19 12:00N 68°25' E 015°60'3 6.0
2017-Nov-19 11:30N 68°22' E 016°01'714.0
2017-Nov-19 11:00N 68°16' E 016°05'2 3.7
2017-Nov-19 10:30N 68°14' E 016°05'612.3
2017-Nov-19 10:00N 68°20' E 016°01'611.4
2017-Nov-19 09:30N 68°25' E 015°60'2 4.2
2017-Nov-19 09:00N 68°23' E 016°01'714.0
2017-Nov-19 08:30N 68°16' E 016°04'3 5.5
2017-Nov-19 08:00N 68°14' E 016°04'611.9
2017-Nov-19 07:30N 68°19' E 016°01'612.0
2017-Nov-19 07:00N 68°25' E 015°60'0 0.0
2017-Nov-19 06:30N 68°25' E 015°60'0 0.0
2017-Nov-19 06:00N 68°25' E 015°60'0 0.0
2017-Nov-19 05:30N 68°25' E 015°60'0 0.0
2017-Nov-19 05:00N 68°25' E 015°60'0 0.0
2017-Nov-19 04:30N 68°25' E 015°60'0 0.0
2017-Nov-19 04:00N 68°25' E 015°60'0 0.0
2017-Nov-19 03:30N 68°25' E 015°60'0 0.0
2017-Nov-19 03:00N 68°25' E 015°60'0 0.0
2017-Nov-19 02:30N 68°25' E 015°60'0 0.0
2017-Nov-19 02:00N 68°25' E 015°60'0 0.0
2017-Nov-19 01:30N 68°25' E 015°60'0 0.0
2017-Nov-19 01:00N 68°25' E 015°60'0 0.0
2017-Nov-19 00:30N 68°25' E 015°60'0 0.0
2017-Nov-19 00:00N 68°25' E 015°60'0 0.0
2017-Nov-18 23:30N 68°25' E 015°60'0 0.0
2017-Nov-18 23:00N 68°25' E 015°60'0 0.0
2017-Nov-18 22:30N 68°25' E 015°60'0 0.0
2017-Nov-18 22:00N 68°25' E 015°60'0 0.0
2017-Nov-18 21:30N 68°25' E 015°60'5 9.4
2017-Nov-18 21:00N 68°21' E 016°01'713.8
2017-Nov-18 20:30N 68°14' E 016°05'1 1.1
2017-Nov-18 20:00N 68°14' E 016°04'612.6
2017-Nov-18 19:30N 68°20' E 015°60'611.2
2017-Nov-18 19:00N 68°25' E 015°60'1 2.5
2017-Nov-18 18:30N 68°24' E 016°02'713.5
2017-Nov-18 18:00N 68°17' E 016°02'4 8.0
2017-Nov-18 17:30N 68°13' E 016°04'3 5.7
2017-Nov-18 17:00N 68°16' E 016°03'714.1
2017-Nov-18 16:30N 68°23' E 016°01'2 4.1
2017-Nov-18 16:00N 68°25' E 015°60'0 0.1
2017-Nov-18 15:30N 68°25' E 015°60'611.4
2017-Nov-18 15:00N 68°20' E 016°01'612.6
2017-Nov-18 14:30N 68°13' E 016°04'0 0.2
2017-Nov-18 14:00N 68°14' E 016°04'612.4
2017-Nov-18 13:30N 68°20' E 016°00'611.5
2017-Nov-18 13:00N 68°25' E 015°60'0 0.0
2017-Nov-18 12:30N 68°25' E 015°60'0 0.0
2017-Nov-18 12:00N 68°25' E 015°60'2 3.9
2017-Nov-18 11:30N 68°23' E 016°01'714.0
2017-Nov-18 11:00N 68°16' E 016°04'3 5.7
2017-Nov-18 10:30N 68°14' E 016°04'612.1
2017-Nov-18 10:00N 68°20' E 016°00'611.5
2017-Nov-18 09:30N 68°25' E 015°60'3 5.7
2017-Nov-18 09:00N 68°22' E 016°01'713.5
2017-Nov-18 08:30N 68°16' E 016°04'2 4.5
2017-Nov-18 08:00N 68°14' E 016°04'612.8
2017-Nov-18 07:30N 68°20' E 015°60'610.8
2017-Nov-18 07:00N 68°25' E 015°60'0 0.0
2017-Nov-18 06:28N 68°25' E 015°60'0 0.0
2017-Nov-18 05:58N 68°25' E 015°60'0 0.0
2017-Nov-18 05:28N 68°25' E 015°60'0 0.0
2017-Nov-18 04:58N 68°25' E 015°60'0 0.0
2017-Nov-18 04:28N 68°25' E 015°60'0 0.0
2017-Nov-18 03:58N 68°25' E 015°60'0 0.0
2017-Nov-18 03:28N 68°25' E 015°60'0 0.0
2017-Nov-18 02:58N 68°25' E 015°60'0 0.0
2017-Nov-18 02:28N 68°25' E 015°60'0 0.0
2017-Nov-18 01:58N 68°25' E 015°60'0 0.0
2017-Nov-18 01:28N 68°25' E 015°60'0 0.0
2017-Nov-18 00:58N 68°25' E 015°60'0 0.0
2017-Nov-18 00:28N 68°25' E 015°60'0 0.0
2017-Nov-17 23:57N 68°25' E 015°60'3 7.3
2017-Nov-17 23:30N 68°22' E 016°01'713.1
2017-Nov-17 23:00N 68°16' E 016°05'2 3.9
2017-Nov-17 22:30N 68°14' E 016°04'612.3
2017-Nov-17 22:00N 68°20' E 016°00'611.6
2017-Nov-17 21:30N 68°25' E 015°60'3 5.1
2017-Nov-17 21:00N 68°23' E 016°01'713.1
2017-Nov-17 20:30N 68°16' E 016°04'3 5.3
2017-Nov-17 20:00N 68°14' E 016°04'612.4
2017-Nov-17 19:30N 68°20' E 015°60'611.4
2017-Nov-17 19:00N 68°25' E 015°60'3 5.1
2017-Nov-17 18:30N 68°23' E 016°01'713.4
2017-Nov-17 18:00N 68°16' E 016°04'3 5.3
2017-Nov-17 17:30N 68°13' E 016°04'3 6.8
2017-Nov-17 17:00N 68°17' E 016°03'713.4
2017-Nov-17 16:30N 68°23' E 016°01'2 3.7
2017-Nov-17 16:00N 68°25' E 015°60'0 0.0
2017-Nov-17 15:30N 68°25' E 015°60'511.0
2017-Nov-17 15:00N 68°20' E 016°01'613.0
2017-Nov-17 14:30N 68°13' E 016°04'0 0.5
2017-Nov-17 14:00N 68°14' E 016°05'612.9
2017-Nov-17 13:30N 68°20' E 016°00'510.8
2017-Nov-17 13:00N 68°25' E 015°60'0 0.0
2017-Nov-17 12:30N 68°25' E 015°60'0 0.0
2017-Nov-17 12:00N 68°25' E 015°60'3 6.0
2017-Nov-17 11:30N 68°22' E 016°01'714.1
2017-Nov-17 11:00N 68°15' E 016°05'2 3.6
2017-Nov-17 10:30N 68°14' E 016°04'612.3
2017-Nov-17 10:00N 68°20' E 016°00'611.5
2017-Nov-17 09:30N 68°25' E 015°60'2 4.2
2017-Nov-17 09:00N 68°23' E 016°01'714.2
2017-Nov-17 08:30N 68°16' E 016°04'3 5.4
2017-Nov-17 08:00N 68°14' E 016°04'612.3
2017-Nov-17 07:30N 68°20' E 016°01'611.1
2017-Nov-17 07:00N 68°25' E 015°60'2 3.9
2017-Nov-17 06:30N 68°23' E 016°01'714.3
2017-Nov-17 06:00N 68°16' E 016°04'3 5.5
2017-Nov-17 05:30N 68°14' E 016°04'612.4
2017-Nov-17 05:00N 68°20' E 016°00'611.3
2017-Nov-17 04:31N 68°25' E 015°60'0 0.0
2017-Nov-17 04:00N 68°25' E 015°60'0 0.0
2017-Nov-17 03:30N 68°25' E 015°60'0 0.0
2017-Nov-17 03:00N 68°25' E 015°60'0 0.0
2017-Nov-17 02:27N 68°25' E 015°60'0 0.0
2017-Nov-17 02:00N 68°25' E 015°60'0 0.0
2017-Nov-17 01:30N 68°25' E 015°60'0 0.0
2017-Nov-17 01:00N 68°25' E 015°60'0 0.0
2017-Nov-17 00:30N 68°25' E 015°60'0 0.0
2017-Nov-16 23:57N 68°25' E 015°60'2 3.9
2017-Nov-16 23:30N 68°24' E 016°01'613.1
2017-Nov-16 23:00N 68°17' E 016°03'4 7.4
2017-Nov-16 22:30N 68°14' E 016°04'612.4
2017-Nov-16 22:00N 68°20' E 016°01'511.0
2017-Nov-16 21:30N 68°25' E 015°60'3 5.5
2017-Nov-16 21:00N 68°23' E 016°01'713.5
2017-Nov-16 20:30N 68°16' E 016°04'2 4.7
2017-Nov-16 20:01N 68°14' E 016°04'712.8
2017-Nov-16 19:30N 68°20' E 016°00'510.4
2017-Nov-16 19:00N 68°25' E 015°60'2 3.9
2017-Nov-16 18:30N 68°23' E 016°01'713.2
2017-Nov-16 18:00N 68°17' E 016°03'3 6.9
2017-Nov-16 17:30N 68°13' E 016°04'3 6.5
2017-Nov-16 17:00N 68°17' E 016°03'713.5
2017-Nov-16 16:30N 68°23' E 016°01'2 3.9
2017-Nov-16 16:01N 68°25' E 015°60'0 0.1
2017-Nov-16 15:30N 68°25' E 015°60'611.9
2017-Nov-16 15:00N 68°19' E 016°01'611.8
2017-Nov-16 14:30N 68°13' E 016°04'0 0.2
2017-Nov-16 14:00N 68°14' E 016°04'612.7
2017-Nov-16 13:30N 68°20' E 015°60'611.2
2017-Nov-16 13:00N 68°25' E 015°60'0 0.0
2017-Nov-16 12:30N 68°25' E 015°60'0 0.0
2017-Nov-16 12:00N 68°25' E 015°60'3 6.1
2017-Nov-16 11:30N 68°22' E 016°01'714.2
2017-Nov-16 11:00N 68°15' E 016°05'2 3.3
2017-Nov-16 10:30N 68°14' E 016°05'612.8
2017-Nov-16 10:00N 68°20' E 016°01'510.9
2017-Nov-16 09:30N 68°25' E 015°60'3 5.1
2017-Nov-16 09:00N 68°23' E 016°01'714.1
2017-Nov-16 08:30N 68°16' E 016°04'2 4.4
2017-Nov-16 08:00N 68°14' E 016°05'713.5
2017-Nov-16 07:30N 68°20' E 016°01'510.3
2017-Nov-16 07:00N 68°25' E 015°60'4 6.9
2017-Nov-16 06:30N 68°22' E 016°02'713.7
2017-Nov-16 06:00N 68°15' E 016°05'2 3.1
2017-Nov-16 05:30N 68°14' E 016°05'612.7
2017-Nov-16 05:00N 68°20' E 016°01'611.1
2017-Nov-16 04:30N 68°25' E 015°60'0 0.0
2017-Nov-16 03:59N 68°25' E 015°60'0 0.0
2017-Nov-16 03:29N 68°25' E 015°60'0 0.0
2017-Nov-16 02:59N 68°25' E 015°60'0 0.0
2017-Nov-16 02:29N 68°25' E 015°60'0 0.0
2017-Nov-16 01:59N 68°25' E 015°60'0 0.0
2017-Nov-16 01:29N 68°25' E 015°60'0 0.0
2017-Nov-16 00:59N 68°25' E 015°60'0 0.0
2017-Nov-16 00:29N 68°25' E 015°60'0 0.0
2017-Nov-15 23:59N 68°25' E 015°60'1 2.7
2017-Nov-15 23:30N 68°24' E 016°01'713.7
2017-Nov-15 23:00N 68°17' E 016°02'4 7.6
2017-Nov-15 22:30N 68°14' E 016°04'612.4
2017-Nov-15 22:01N 68°20' E 016°01'611.1
2017-Nov-15 21:30N 68°25' E 015°60'2 4.7
2017-Nov-15 21:00N 68°23' E 016°01'713.6
2017-Nov-15 20:30N 68°16' E 016°04'3 5.2
2017-Nov-15 20:00N 68°14' E 016°05'612.8
2017-Nov-15 19:30N 68°20' E 016°01'510.6
2017-Nov-15 19:00N 68°25' E 015°60'2 3.2
2017-Nov-15 18:30N 68°24' E 016°01'713.6
2017-Nov-15 18:00N 68°17' E 016°03'4 7.4
2017-Nov-15 17:30N 68°13' E 016°04'4 7.8
2017-Nov-15 17:00N 68°17' E 016°02'713.4
2017-Nov-15 16:30N 68°24' E 016°01'1 2.6
2017-Nov-15 16:00N 68°25' E 015°60'0 0.1
2017-Nov-15 15:30N 68°25' E 015°60'611.3
2017-Nov-15 15:00N 68°20' E 016°01'612.7
2017-Nov-15 14:30N 68°13' E 016°04'0 0.6
2017-Nov-15 14:00N 68°14' E 016°05'713.2
2017-Nov-15 13:30N 68°20' E 016°00'510.0
2017-Nov-15 12:59N 68°25' E 015°60'0 0.0
2017-Nov-15 12:30N 68°25' E 015°60'0 0.0
2017-Nov-15 12:00N 68°25' E 015°60'3 6.0
2017-Nov-15 11:30N 68°22' E 016°01'714.3
2017-Nov-15 11:00N 68°15' E 016°05'2 3.3
2017-Nov-15 10:30N 68°14' E 016°05'713.3
2017-Nov-15 10:00N 68°20' E 016°01'510.2
2017-Nov-15 09:30N 68°25' E 015°60'3 6.0
2017-Nov-15 09:00N 68°22' E 016°01'714.0
2017-Nov-15 08:31N 68°15' E 016°05'2 3.0
2017-Nov-15 08:00N 68°14' E 016°05'713.6
2017-Nov-15 07:31N 68°21' E 016°01'5 9.1
2017-Nov-15 07:00N 68°25' E 015°60'2 3.6
2017-Nov-15 06:30N 68°24' E 016°01'714.2
2017-Nov-15 06:00N 68°16' E 016°04'3 5.5
2017-Nov-15 05:30N 68°14' E 016°05'713.1
2017-Nov-15 05:00N 68°20' E 016°01'510.5
2017-Nov-15 04:30N 68°25' E 015°60'0 0.0
2017-Nov-15 04:00N 68°25' E 015°60'0 0.0
2017-Nov-15 03:30N 68°25' E 015°60'0 0.0
2017-Nov-15 03:00N 68°25' E 015°60'0 0.0
2017-Nov-15 02:30N 68°25' E 015°60'0 0.0
2017-Nov-15 02:00N 68°25' E 015°60'0 0.0
2017-Nov-15 01:30N 68°25' E 015°60'0 0.0
2017-Nov-15 01:00N 68°25' E 015°60'0 0.0
2017-Nov-15 00:30N 68°25' E 015°60'0 0.0
2017-Nov-15 00:00N 68°25' E 015°60'3 5.4
2017-Nov-14 23:30N 68°23' E 016°01'713.4
2017-Nov-14 23:00N 68°16' E 016°04'2 4.1
2017-Nov-14 22:30N 68°14' E 016°05'612.7
2017-Nov-14 22:00N 68°20' E 016°00'510.1
2017-Nov-14 21:30N 68°25' E 015°60'4 7.5
2017-Nov-14 21:00N 68°22' E 016°01'713.9
2017-Nov-14 20:30N 68°15' E 016°05'1 2.4
2017-Nov-14 20:00N 68°14' E 016°05'612.5
2017-Nov-14 19:30N 68°20' E 016°01'611.0
2017-Nov-14 19:00N 68°25' E 015°60'1 2.5
2017-Nov-14 18:30N 68°24' E 016°02'713.8
2017-Nov-14 18:00N 68°17' E 016°03'4 7.6
2017-Nov-14 17:30N 68°13' E 016°04'3 7.1
2017-Nov-14 17:00N 68°17' E 016°03'713.4
2017-Nov-14 16:30N 68°24' E 016°01'2 3.5
2017-Nov-14 16:00N 68°25' E 015°60'0 0.1
2017-Nov-14 15:30N 68°25' E 015°60'611.5
2017-Nov-14 15:00N 68°20' E 016°01'612.6
2017-Nov-14 14:30N 68°13' E 016°04'0 0.5
2017-Nov-14 14:00N 68°14' E 016°05'612.9
2017-Nov-14 13:30N 68°20' E 016°00'510.8
2017-Nov-14 13:01N 68°25' E 015°60'0 0.0
2017-Nov-14 12:30N 68°25' E 015°60'0 0.0
2017-Nov-14 12:00N 68°25' E 015°60'2 3.7
2017-Nov-14 11:30N 68°23' E 016°01'714.1
2017-Nov-14 11:00N 68°16' E 016°03'3 5.9
2017-Nov-14 10:30N 68°14' E 016°04'612.1
2017-Nov-14 10:00N 68°19' E 015°60'612.0
2017-Nov-14 09:30N 68°25' E 015°60'2 4.1
2017-Nov-14 09:00N 68°23' E 016°01'714.0
2017-Nov-14 08:30N 68°16' E 016°04'3 5.5
2017-Nov-14 08:00N 68°14' E 016°05'612.7
2017-Nov-14 07:30N 68°20' E 016°00'611.2
2017-Nov-14 07:00N 68°25' E 015°60'1 2.1
2017-Nov-14 06:30N 68°24' E 016°01'714.2
2017-Nov-14 06:00N 68°17' E 016°02'4 7.2
2017-Nov-14 05:30N 68°14' E 016°05'613.0
2017-Nov-14 05:00N 68°20' E 016°00'510.7
2017-Nov-14 04:30N 68°25' E 015°60'0 0.0
2017-Nov-14 04:00N 68°25' E 015°60'0 0.0
2017-Nov-14 03:30N 68°25' E 015°60'0 0.0
2017-Nov-14 03:00N 68°25' E 015°60'0 0.0
2017-Nov-14 02:30N 68°25' E 015°60'0 0.0
2017-Nov-14 02:00N 68°25' E 015°60'0 0.0
2017-Nov-14 01:30N 68°25' E 015°60'0 0.0
2017-Nov-14 01:00N 68°25' E 015°60'0 0.0
2017-Nov-14 00:30N 68°25' E 015°60'0 0.0
2017-Nov-14 00:00N 68°25' E 015°60'1 2.9
2017-Nov-13 23:30N 68°24' E 016°01'713.4
2017-Nov-13 23:00N 68°17' E 016°03'4 7.4
2017-Nov-13 22:30N 68°14' E 016°05'612.4
2017-Nov-13 22:00N 68°20' E 016°01'6 0.3
2017-Nov-13 02:00N 68°25' E 015°60'0 0.0
2017-Nov-13 01:30N 68°25' E 015°60'0 0.0
2017-Nov-13 01:00N 68°25' E 015°60'0 0.0
2017-Nov-13 00:30N 68°25' E 015°60'0 0.0
2017-Nov-13 00:00N 68°25' E 015°60'1 2.7
2017-Nov-12 23:30N 68°24' E 016°01'713.5
2017-Nov-12 23:00N 68°17' E 016°02'4 7.9
2017-Nov-12 22:30N 68°14' E 016°04'612.2
2017-Nov-12 22:00N 68°20' E 016°00'611.5
2017-Nov-12 21:31N 68°25' E 015°60'3 5.2
2017-Nov-12 21:00N 68°23' E 016°01'713.2
2017-Nov-12 20:30N 68°16' E 016°04'3 4.9
2017-Nov-12 20:00N 68°14' E 016°04'612.6
2017-Nov-12 19:30N 68°20' E 016°00'611.1
2017-Nov-12 19:00N 68°25' E 015°60'1 2.1
2017-Nov-12 18:30N 68°24' E 016°01'713.9
2017-Nov-12 18:00N 68°18' E 016°02'4 8.2
2017-Nov-12 17:30N 68°13' E 016°04'3 6.2
2017-Nov-12 17:01N 68°16' E 016°03'713.6
2017-Nov-12 16:30N 68°23' E 016°01'2 3.9
2017-Nov-12 16:00N 68°25' E 015°60'0 0.0
2017-Nov-12 15:30N 68°25' E 015°60'510.8
2017-Nov-12 15:00N 68°20' E 016°01'713.1
2017-Nov-12 14:30N 68°13' E 016°04'0 0.2
2017-Nov-12 14:00N 68°14' E 016°04'612.5
2017-Nov-12 13:30N 68°20' E 016°00'611.3
2017-Nov-12 13:00N 68°25' E 015°60'0 0.0
2017-Nov-12 12:30N 68°25' E 015°60'0 0.0
2017-Nov-12 12:00N 68°25' E 015°60'2 4.2
2017-Nov-12 11:30N 68°23' E 016°01'713.6
2017-Nov-12 11:00N 68°16' E 016°04'3 5.9
2017-Nov-12 10:31N 68°14' E 016°04'612.4
2017-Nov-12 10:00N 68°20' E 016°00'511.1
2017-Nov-12 09:30N 68°25' E 015°60'2 3.7
2017-Nov-12 09:00N 68°24' E 016°01'714.0
2017-Nov-12 08:30N 68°16' E 016°04'3 5.7
2017-Nov-12 08:00N 68°14' E 016°04'612.5
2017-Nov-12 07:30N 68°20' E 016°01'611.2
2017-Nov-12 07:00N 68°25' E 015°60'0 0.0
2017-Nov-12 06:29N 68°25' E 015°60'0 0.0
2017-Nov-12 05:59N 68°25' E 015°60'0 0.0
2017-Nov-12 05:29N 68°25' E 015°60'0 0.0
2017-Nov-12 04:59N 68°25' E 015°60'0 0.0
2017-Nov-12 04:29N 68°25' E 015°60'0 0.0
2017-Nov-12 03:59N 68°25' E 015°60'0 0.0
2017-Nov-12 03:29N 68°25' E 015°60'0 0.0
2017-Nov-12 02:59N 68°25' E 015°60'0 0.0
2017-Nov-12 02:29N 68°25' E 015°60'0 0.0
2017-Nov-12 01:59N 68°25' E 015°60'0 0.0
2017-Nov-12 01:29N 68°25' E 015°60'0 0.0
2017-Nov-12 00:59N 68°25' E 015°60'0 0.0
2017-Nov-12 00:29N 68°25' E 015°60'0 0.0
2017-Nov-11 23:59N 68°25' E 015°60'0 0.0
2017-Nov-11 23:29N 68°25' E 015°60'0 0.0
2017-Nov-11 22:59N 68°25' E 015°60'0 0.0
2017-Nov-11 22:29N 68°25' E 015°60'0 0.0
2017-Nov-11 21:59N 68°25' E 015°60'0 0.0
2017-Nov-11 21:29N 68°25' E 015°60'2 4.7
2017-Nov-11 21:00N 68°23' E 016°01'713.6
2017-Nov-11 20:30N 68°16' E 016°04'3 5.5
2017-Nov-11 20:00N 68°14' E 016°04'612.1
2017-Nov-11 19:30N 68°19' E 016°01'611.6
2017-Nov-11 19:00N 68°25' E 015°60'1 2.0
2017-Nov-11 18:30N 68°24' E 016°01'714.1
2017-Nov-11 18:00N 68°17' E 016°02'4 8.0
2017-Nov-11 17:30N 68°13' E 016°04'4 7.3
2017-Nov-11 17:00N 68°17' E 016°02'612.8
2017-Nov-11 16:30N 68°23' E 016°01'2 3.8
2017-Nov-11 16:00N 68°25' E 015°60'0 0.2
2017-Nov-11 15:30N 68°25' E 015°60'612.3
2017-Nov-11 15:00N 68°19' E 016°01'611.7
2017-Nov-11 14:30N 68°13' E 016°04'0 0.3
2017-Nov-11 14:00N 68°14' E 016°04'612.7
2017-Nov-11 13:30N 68°20' E 016°00'510.9
2017-Nov-11 13:00N 68°25' E 015°60'0 0.0
2017-Nov-11 12:30N 68°25' E 015°60'0 0.0
2017-Nov-11 12:00N 68°25' E 015°60'4 7.3
2017-Nov-11 11:30N 68°22' E 016°01'714.0
2017-Nov-11 11:00N 68°15' E 016°05'1 1.6
2017-Nov-11 10:30N 68°14' E 016°05'612.7
2017-Nov-11 10:00N 68°20' E 016°01'510.1
2017-Nov-11 09:30N 68°25' E 015°60'3 5.2
2017-Nov-11 09:00N 68°23' E 016°01'713.9
2017-Nov-11 08:30N 68°16' E 016°04'2 4.4
2017-Nov-11 08:00N 68°14' E 016°05'613.0
2017-Nov-11 07:30N 68°20' E 016°00'510.7
2017-Nov-11 07:00N 68°25' E 015°60'0 0.0
2017-Nov-11 06:30N 68°25' E 015°60'0 0.0
2017-Nov-11 06:00N 68°25' E 015°60'0 0.0
2017-Nov-11 05:30N 68°25' E 015°60'0 0.0
2017-Nov-11 05:00N 68°25' E 015°60'0 0.0
2017-Nov-11 04:30N 68°25' E 015°60'0 0.0
2017-Nov-11 04:00N 68°25' E 015°60'0 0.0
2017-Nov-11 03:30N 68°25' E 015°60'0 0.0
2017-Nov-11 03:00N 68°25' E 015°60'0 0.0
2017-Nov-11 02:30N 68°25' E 015°60'0 0.0
2017-Nov-11 02:00N 68°25' E 015°60'0 0.0
2017-Nov-11 01:30N 68°25' E 015°60'0 0.0
2017-Nov-11 01:00N 68°25' E 015°60'0 0.0
2017-Nov-11 00:30N 68°25' E 015°60'0 0.0
2017-Nov-11 00:00N 68°25' E 015°60'1 1.5
2017-Nov-10 23:30N 68°25' E 016°01'714.3
2017-Nov-10 23:00N 68°18' E 016°02'4 8.4
2017-Nov-10 22:30N 68°14' E 016°04'612.2
2017-Nov-10 22:00N 68°20' E 016°01'611.2
2017-Nov-10 21:30N 68°25' E 015°60'2 3.3
2017-Nov-10 21:00N 68°24' E 016°01'714.8
2017-Nov-10 20:30N 68°16' E 016°03'3 5.8
2017-Nov-10 20:00N 68°14' E 016°04'612.1
2017-Nov-10 19:30N 68°20' E 016°01'611.3
2017-Nov-10 19:00N 68°25' E 015°60'1 1.9
2017-Nov-10 18:30N 68°24' E 016°01'714.2
2017-Nov-10 18:00N 68°17' E 016°02'4 8.1
2017-Nov-10 17:30N 68°13' E 016°04'3 6.9
2017-Nov-10 17:00N 68°17' E 016°02'613.0
2017-Nov-10 16:30N 68°23' E 016°01'2 3.9
2017-Nov-10 16:00N 68°25' E 015°60'0 0.1
2017-Nov-10 15:30N 68°25' E 015°60'611.6
2017-Nov-10 15:00N 68°19' E 016°01'612.3
2017-Nov-10 14:30N 68°13' E 016°04'1 1.3
2017-Nov-10 14:00N 68°14' E 016°05'612.8
2017-Nov-10 13:30N 68°20' E 016°00'510.5
2017-Nov-10 13:00N 68°25' E 015°60'0 0.0
2017-Nov-10 12:30N 68°25' E 015°60'0 0.0
2017-Nov-10 12:00N 68°25' E 015°60'3 5.4
2017-Nov-10 11:30N 68°23' E 016°01'713.7
2017-Nov-10 11:00N 68°16' E 016°04'2 4.3
2017-Nov-10 10:30N 68°14' E 016°05'612.7
2017-Nov-10 10:00N 68°20' E 016°00'611.1
2017-Nov-10 09:30N 68°25' E 015°60'3 5.3
2017-Nov-10 09:00N 68°23' E 016°01'713.7
2017-Nov-10 08:30N 68°16' E 016°04'2 4.2
2017-Nov-10 08:00N 68°14' E 016°05'613.0
2017-Nov-10 07:30N 68°20' E 016°01'510.3
2017-Nov-10 07:00N 68°25' E 015°60'1 2.3
2017-Nov-10 06:30N 68°24' E 016°02'713.7
2017-Nov-10 06:00N 68°17' E 016°02'4 7.9
2017-Nov-10 05:30N 68°14' E 016°05'612.4
2017-Nov-10 05:00N 68°20' E 016°01'611.3
2017-Nov-10 04:30N 68°25' E 015°60'0 0.0
2017-Nov-10 04:00N 68°25' E 015°60'0 0.0
2017-Nov-10 03:30N 68°25' E 015°60'0 0.0
2017-Nov-10 03:00N 68°25' E 015°60'0 0.0
2017-Nov-10 02:30N 68°25' E 015°60'0 0.0
2017-Nov-10 02:00N 68°25' E 015°60'0 0.0
2017-Nov-10 01:30N 68°25' E 015°60'0 0.0
2017-Nov-10 01:00N 68°25' E 015°60'0 0.0
2017-Nov-10 00:30N 68°25' E 015°60'  

Dump ship's entire track history